Sjobris — SLXP — position and weather

sailwx.info

Track history (hours):
 
Tides and Currents Weather Stations Pressure Air Temp Water Temp Dewpoint Dewpoint Depression Visibility Wind Speed Wind Dir Waves Ship Positions

Sjobris

Last reported at 2016-May-25 02:33 UTC. Time now 2016-May-25 03:18 UTC.
Position N 59°20' E 018°05'.

Length 38 m.

Type: Passenger vessel. MMSI: 265522700.

Date/timePositionNaut miles runAvg speedWind from/ knotsBaromVisibWave heightAir tempDewpointWater temp
2016-May-25 02:33N 59°20' E 018°05'0 0.0
2016-May-25 01:33N 59°20' E 018°05'0 0.0
2016-May-24 23:28N 59°20' E 018°05'0 0.0
2016-May-24 22:33N 59°20' E 018°05'0 0.0
2016-May-24 21:28N 59°20' E 018°05'0 0.0
2016-May-24 20:32N 59°20' E 018°05'0 0.0
2016-May-24 19:34N 59°20' E 018°05'0 0.0
2016-May-24 18:33N 59°20' E 018°05'0 0.0
2016-May-24 17:33N 59°20' E 018°05'0 0.0
2016-May-24 16:33N 59°20' E 018°05'0 0.0
2016-May-24 15:33N 59°20' E 018°05'0 0.0
2016-May-24 14:33N 59°20' E 018°05'4 0.5
2016-May-24 07:21N 59°20' E 018°11'4 4.3
2016-May-24 06:31N 59°20' E 018°05'0 0.0
2016-May-24 05:33N 59°20' E 018°05'0 0.0
2016-May-24 04:33N 59°20' E 018°05'0 0.0
2016-May-24 03:34N 59°20' E 018°05'0 0.0
2016-May-24 02:34N 59°20' E 018°05'0 0.0
2016-May-24 01:34N 59°20' E 018°05'0 0.0
2016-May-24 00:33N 59°20' E 018°05'0 0.0
2016-May-23 23:34N 59°20' E 018°05'0 0.0
2016-May-23 22:33N 59°20' E 018°05'0 0.0
2016-May-23 21:33N 59°20' E 018°05'0 0.0
2016-May-23 20:33N 59°20' E 018°05'0 0.0
2016-May-23 19:33N 59°20' E 018°05'0 0.0
2016-May-23 18:33N 59°20' E 018°05'0 0.0
2016-May-23 17:33N 59°20' E 018°05'0 0.0
2016-May-23 16:33N 59°20' E 018°05'0 0.0
2016-May-23 15:33N 59°20' E 018°04'4 0.5
2016-May-23 06:24N 59°20' E 018°13'4 5.1
2016-May-23 05:34N 59°20' E 018°05'0 0.1
2016-May-23 04:33N 59°20' E 018°05'0 0.0
2016-May-23 03:22N 59°20' E 018°05'0 0.0
2016-May-23 02:34N 59°20' E 018°05'0 0.0
2016-May-23 01:31N 59°20' E 018°05'0 0.0
2016-May-23 00:33N 59°20' E 018°05'0 0.0
2016-May-22 23:33N 59°20' E 018°05'0 0.0
2016-May-22 22:34N 59°20' E 018°05'0 0.0
2016-May-22 21:33N 59°20' E 018°05'0 0.0
2016-May-22 20:33N 59°20' E 018°05'0 0.0
2016-May-22 19:33N 59°20' E 018°05'0 0.0
2016-May-22 18:08N 59°20' E 018°05'0 0.3
2016-May-22 17:33N 59°20' E 018°04'3 2.7
2016-May-22 16:31N 59°19' E 018°10'3 0.4
2016-May-22 09:33N 59°21' E 018°14'5 5.3
2016-May-22 08:33N 59°20' E 018°05'0 0.0
2016-May-21 15:12N 59°20' E 018°05'1 0.1
2016-May-21 06:08N 59°19' E 018°07'1 1.9
2016-May-21 05:32N 59°19' E 018°05'0 0.1
2016-May-21 04:33N 59°20' E 018°05'0 0.0
2016-May-21 03:33N 59°20' E 018°05'0 0.0
2016-May-21 02:33N 59°20' E 018°05'0 0.0
2016-May-21 01:33N 59°20' E 018°05'0 0.0
2016-May-21 00:33N 59°20' E 018°05'0 0.0
2016-May-20 23:34N 59°20' E 018°05'0 0.0
2016-May-20 22:33N 59°20' E 018°05'0 0.0
2016-May-20 21:33N 59°20' E 018°05'0 0.0
2016-May-20 20:33N 59°20' E 018°05'0 0.0
2016-May-20 19:33N 59°20' E 018°05'0 0.0
2016-May-20 18:33N 59°20' E 018°05'0 0.0
2016-May-20 17:33N 59°20' E 018°05'0 0.0
2016-May-20 16:33N 59°20' E 018°05'0 0.1
2016-May-20 15:33N 59°20' E 018°05'4 0.5
2016-May-20 06:23N 59°20' E 018°13'4 5.0
2016-May-20 05:33N 59°20' E 018°05'0 0.1
2016-May-20 04:33N 59°20' E 018°05'0 0.0
2016-May-20 03:33N 59°20' E 018°05'0 0.0
2016-May-20 02:33N 59°20' E 018°05'0 0.0
2016-May-20 01:33N 59°20' E 018°05'0 0.0
2016-May-20 00:33N 59°20' E 018°05'0 0.0
2016-May-19 23:33N 59°20' E 018°05'0 0.0
2016-May-19 22:33N 59°20' E 018°05'0 0.0
2016-May-19 21:33N 59°20' E 018°05'0 0.0
2016-May-19 20:33N 59°20' E 018°05'0 0.0
2016-May-19 19:33N 59°20' E 018°05'0 0.0
2016-May-19 18:33N 59°20' E 018°05'0 0.0
2016-May-19 17:28N 59°20' E 018°05'1 1.0
2016-May-19 16:04N 59°18' E 018°03'1 2.4
2016-May-19 15:33N 59°20' E 018°03'0 0.3
2016-May-19 14:34N 59°19' E 018°03'2 1.2
2016-May-19 13:12N 59°19' E 018°06'1 1.8
2016-May-19 12:33N 59°20' E 018°05'0 0.0
2016-May-19 11:28N 59°20' E 018°05'0 0.0
2016-May-19 10:22N 59°20' E 018°05'0 0.0
2016-May-19 08:30N 59°20' E 018°05'0 0.0
2016-May-19 07:32N 59°20' E 018°05'0 0.0
2016-May-19 06:33N 59°20' E 018°05'0 0.0
2016-May-19 05:33N 59°20' E 018°05'0 0.0
2016-May-19 04:33N 59°20' E 018°05'0 0.0
2016-May-19 03:33N 59°20' E 018°05'0 0.0
2016-May-19 02:33N 59°20' E 018°05'0 0.0
2016-May-19 01:33N 59°20' E 018°05'0 0.0
2016-May-19 00:33N 59°20' E 018°05'0 0.0
2016-May-18 23:33N 59°20' E 018°05'0 0.0
2016-May-18 22:33N 59°20' E 018°05'0 0.0
2016-May-18 21:33N 59°20' E 018°05'0 0.0
2016-May-18 20:33N 59°20' E 018°05'0 0.0
2016-May-18 19:33N 59°20' E 018°05'0 0.0
2016-May-18 18:23N 59°20' E 018°05'0 0.0
2016-May-18 17:33N 59°20' E 018°05'0 0.0
2016-May-18 16:33N 59°20' E 018°05'1 0.7
2016-May-18 15:33N 59°20' E 018°03'0 0.3
2016-May-18 14:33N 59°19' E 018°03'2 1.4
2016-May-18 13:25N 59°19' E 018°06'1 1.3
2016-May-18 12:33N 59°20' E 018°05'0 0.2
2016-May-18 11:34N 59°20' E 018°05'0 0.0
2016-May-18 10:33N 59°20' E 018°05'0 0.0
2016-May-18 09:33N 59°20' E 018°05'0 0.0
2016-May-18 08:25N 59°20' E 018°05'0 0.0
2016-May-18 07:34N 59°20' E 018°05'0 0.0
2016-May-18 06:32N 59°20' E 018°05'0 0.0
2016-May-18 05:34N 59°20' E 018°05'0 0.0
2016-May-18 04:34N 59°20' E 018°05'0 0.0
2016-May-18 03:33N 59°20' E 018°05'0 0.0
2016-May-18 02:34N 59°20' E 018°05'0 0.0
2016-May-18 01:33N 59°20' E 018°05'0 0.0
2016-May-18 00:30N 59°20' E 018°05'0 0.0
2016-May-17 23:33N 59°20' E 018°05'0 0.0
2016-May-17 22:34N 59°20' E 018°05'0 0.0
2016-May-17 21:33N 59°20' E 018°05'0 0.0
2016-May-17 20:33N 59°20' E 018°05'0 0.0
2016-May-17 19:34N 59°20' E 018°05'0 0.0
2016-May-17 18:33N 59°20' E 018°05'0 0.0
2016-May-17 17:33N 59°20' E 018°05'0 0.0
2016-May-17 16:34N 59°20' E 018°05'0 0.0
2016-May-17 15:32N 59°20' E 018°05'0 0.0
2016-May-17 14:31N 59°20' E 018°05'0 0.0
2016-May-17 13:33N 59°20' E 018°05'0 0.0
2016-May-17 12:33N 59°20' E 018°05'0 0.0
2016-May-17 11:33N 59°20' E 018°05'0 0.0
2016-May-17 10:33N 59°20' E 018°05'0 0.0
2016-May-17 09:33N 59°20' E 018°05'0 0.0
2016-May-17 08:20N 59°20' E 018°05'0 0.0
2016-May-17 07:25N 59°20' E 018°05'0 0.0
2016-May-17 06:21N 59°20' E 018°05'0 0.0
2016-May-17 05:29N 59°20' E 018°05'0 0.0
2016-May-17 04:34N 59°20' E 018°05'0 0.0
2016-May-17 03:33N 59°20' E 018°05'0 0.0
2016-May-17 02:33N 59°20' E 018°05'0 0.0
2016-May-17 01:33N 59°20' E 018°05'0 0.0
2016-May-17 00:33N 59°20' E 018°05'0 0.0
2016-May-16 23:33N 59°20' E 018°05'0 0.0
2016-May-16 22:33N 59°20' E 018°05'0 0.0
2016-May-16 21:32N 59°20' E 018°05'0 0.0
2016-May-16 20:33N 59°20' E 018°05'0 0.0
2016-May-16 19:33N 59°20' E 018°05'0 0.0
2016-May-16 18:32N 59°20' E 018°05'0 0.0
2016-May-16 17:29N 59°20' E 018°05'0 0.0
2016-May-16 16:24N 59°20' E 018°05'0 0.0
2016-May-16 15:32N 59°20' E 018°05'0 0.0
2016-May-16 14:33N 59°20' E 018°05'0 0.0
2016-May-16 13:18N 59°20' E 018°05'0 0.0
2016-May-16 12:33N 59°20' E 018°05'0 0.0
2016-May-16 11:33N 59°20' E 018°05'0 0.0
2016-May-16 10:33N 59°20' E 018°05'0 0.0
2016-May-16 09:34N 59°20' E 018°05'0 0.0
2016-May-16 08:31N 59°20' E 018°05'0 0.0
2016-May-16 07:33N 59°20' E 018°05'0 0.0
2016-May-16 06:33N 59°20' E 018°05'0 0.0
2016-May-16 05:33N 59°20' E 018°05'0 0.0
2016-May-16 04:33N 59°20' E 018°05'0 0.0
2016-May-16 03:34N 59°20' E 018°05'0 0.0
2016-May-16 02:33N 59°20' E 018°05'0 0.0
2016-May-16 01:33N 59°20' E 018°05'0 0.0
2016-May-16 00:33N 59°20' E 018°05'0 0.0
2016-May-15 23:33N 59°20' E 018°05'0 0.0
2016-May-15 22:33N 59°20' E 018°05'0 0.0
2016-May-15 21:34N 59°20' E 018°05'0 0.0
2016-May-15 20:33N 59°20' E 018°05'0 0.0
2016-May-15 19:34N 59°20' E 018°05'0 0.0
2016-May-15 18:34N 59°20' E 018°05'0 0.0
2016-May-15 17:33N 59°20' E 018°05'2 2.0
2016-May-15 16:32N 59°19' E 018°09'2 0.2
2016-May-15 09:21N 59°20' E 018°11'4 4.5
2016-May-15 08:33N 59°20' E 018°05'0 0.0
2016-May-15 07:33N 59°20' E 018°05'0 0.0
2016-May-15 06:33N 59°20' E 018°05'0 0.0
2016-May-15 05:33N 59°20' E 018°05'0 0.0
2016-May-15 04:33N 59°20' E 018°05'0 0.0
2016-May-15 03:33N 59°20' E 018°05'0 0.0
2016-May-15 02:33N 59°20' E 018°05'  
Track history (hours):
 
Tides and Currents Weather Stations Pressure Air Temp Water Temp Dewpoint Dewpoint Depression Visibility Wind Speed Wind Dir Waves Ship Positions

Sjobris

Last reported at 2016-May-25 02:33 UTC. Time now 2016-May-25 03:18 UTC.
Position N 59°20' E 018°05'.

Length 38 m.

Type: Passenger vessel. MMSI: 265522700.

Date/timePositionNaut miles runAvg speedWind from/ knotsBaromVisibWave heightAir tempDewpointWater temp
2016-May-25 02:33N 59°20' E 018°05'0 0.0
2016-May-25 01:33N 59°20' E 018°05'0 0.0
2016-May-24 23:28N 59°20' E 018°05'0 0.0
2016-May-24 22:33N 59°20' E 018°05'0 0.0
2016-May-24 21:28N 59°20' E 018°05'0 0.0
2016-May-24 20:32N 59°20' E 018°05'0 0.0
2016-May-24 19:34N 59°20' E 018°05'0 0.0
2016-May-24 18:33N 59°20' E 018°05'0 0.0
2016-May-24 17:33N 59°20' E 018°05'0 0.0
2016-May-24 16:33N 59°20' E 018°05'0 0.0
2016-May-24 15:33N 59°20' E 018°05'0 0.0
2016-May-24 14:33N 59°20' E 018°05'4 0.5
2016-May-24 07:21N 59°20' E 018°11'4 4.3
2016-May-24 06:31N 59°20' E 018°05'0 0.0
2016-May-24 05:33N 59°20' E 018°05'0 0.0
2016-May-24 04:33N 59°20' E 018°05'0 0.0
2016-May-24 03:34N 59°20' E 018°05'0 0.0
2016-May-24 02:34N 59°20' E 018°05'0 0.0
2016-May-24 01:34N 59°20' E 018°05'0 0.0
2016-May-24 00:33N 59°20' E 018°05'0 0.0
2016-May-23 23:34N 59°20' E 018°05'0 0.0
2016-May-23 22:33N 59°20' E 018°05'0 0.0
2016-May-23 21:33N 59°20' E 018°05'0 0.0
2016-May-23 20:33N 59°20' E 018°05'0 0.0
2016-May-23 19:33N 59°20' E 018°05'0 0.0
2016-May-23 18:33N 59°20' E 018°05'0 0.0
2016-May-23 17:33N 59°20' E 018°05'0 0.0
2016-May-23 16:33N 59°20' E 018°05'0 0.0
2016-May-23 15:33N 59°20' E 018°04'4 0.5
2016-May-23 06:24N 59°20' E 018°13'4 5.1
2016-May-23 05:34N 59°20' E 018°05'0 0.1
2016-May-23 04:33N 59°20' E 018°05'0 0.0
2016-May-23 03:22N 59°20' E 018°05'0 0.0
2016-May-23 02:34N 59°20' E 018°05'0 0.0
2016-May-23 01:31N 59°20' E 018°05'0 0.0
2016-May-23 00:33N 59°20' E 018°05'0 0.0
2016-May-22 23:33N 59°20' E 018°05'0 0.0
2016-May-22 22:34N 59°20' E 018°05'0 0.0
2016-May-22 21:33N 59°20' E 018°05'0 0.0
2016-May-22 20:33N 59°20' E 018°05'0 0.0
2016-May-22 19:33N 59°20' E 018°05'0 0.0
2016-May-22 18:08N 59°20' E 018°05'0 0.3
2016-May-22 17:33N 59°20' E 018°04'3 2.7
2016-May-22 16:31N 59°19' E 018°10'3 0.4
2016-May-22 09:33N 59°21' E 018°14'5 5.3
2016-May-22 08:33N 59°20' E 018°05'0 0.0
2016-May-21 15:12N 59°20' E 018°05'1 0.1
2016-May-21 06:08N 59°19' E 018°07'1 1.9
2016-May-21 05:32N 59°19' E 018°05'0 0.1
2016-May-21 04:33N 59°20' E 018°05'0 0.0
2016-May-21 03:33N 59°20' E 018°05'0 0.0
2016-May-21 02:33N 59°20' E 018°05'0 0.0
2016-May-21 01:33N 59°20' E 018°05'0 0.0
2016-May-21 00:33N 59°20' E 018°05'0 0.0
2016-May-20 23:34N 59°20' E 018°05'0 0.0
2016-May-20 22:33N 59°20' E 018°05'0 0.0
2016-May-20 21:33N 59°20' E 018°05'0 0.0
2016-May-20 20:33N 59°20' E 018°05'0 0.0
2016-May-20 19:33N 59°20' E 018°05'0 0.0
2016-May-20 18:33N 59°20' E 018°05'0 0.0
2016-May-20 17:33N 59°20' E 018°05'0 0.0
2016-May-20 16:33N 59°20' E 018°05'0 0.1
2016-May-20 15:33N 59°20' E 018°05'4 0.5
2016-May-20 06:23N 59°20' E 018°13'4 5.0
2016-May-20 05:33N 59°20' E 018°05'0 0.1
2016-May-20 04:33N 59°20' E 018°05'0 0.0
2016-May-20 03:33N 59°20' E 018°05'0 0.0
2016-May-20 02:33N 59°20' E 018°05'0 0.0
2016-May-20 01:33N 59°20' E 018°05'0 0.0
2016-May-20 00:33N 59°20' E 018°05'0 0.0
2016-May-19 23:33N 59°20' E 018°05'0 0.0
2016-May-19 22:33N 59°20' E 018°05'0 0.0
2016-May-19 21:33N 59°20' E 018°05'0 0.0
2016-May-19 20:33N 59°20' E 018°05'0 0.0
2016-May-19 19:33N 59°20' E 018°05'0 0.0
2016-May-19 18:33N 59°20' E 018°05'0 0.0
2016-May-19 17:28N 59°20' E 018°05'1 1.0
2016-May-19 16:04N 59°18' E 018°03'1 2.4
2016-May-19 15:33N 59°20' E 018°03'0 0.3
2016-May-19 14:34N 59°19' E 018°03'2 1.2
2016-May-19 13:12N 59°19' E 018°06'1 1.8
2016-May-19 12:33N 59°20' E 018°05'0 0.0
2016-May-19 11:28N 59°20' E 018°05'0 0.0
2016-May-19 10:22N 59°20' E 018°05'0 0.0
2016-May-19 08:30N 59°20' E 018°05'0 0.0
2016-May-19 07:32N 59°20' E 018°05'0 0.0
2016-May-19 06:33N 59°20' E 018°05'0 0.0
2016-May-19 05:33N 59°20' E 018°05'0 0.0
2016-May-19 04:33N 59°20' E 018°05'0 0.0
2016-May-19 03:33N 59°20' E 018°05'0 0.0
2016-May-19 02:33N 59°20' E 018°05'0 0.0
2016-May-19 01:33N 59°20' E 018°05'0 0.0
2016-May-19 00:33N 59°20' E 018°05'0 0.0
2016-May-18 23:33N 59°20' E 018°05'0 0.0
2016-May-18 22:33N 59°20' E 018°05'0 0.0
2016-May-18 21:33N 59°20' E 018°05'0 0.0
2016-May-18 20:33N 59°20' E 018°05'0 0.0
2016-May-18 19:33N 59°20' E 018°05'0 0.0
2016-May-18 18:23N 59°20' E 018°05'0 0.0
2016-May-18 17:33N 59°20' E 018°05'0 0.0
2016-May-18 16:33N 59°20' E 018°05'1 0.7
2016-May-18 15:33N 59°20' E 018°03'0 0.3
2016-May-18 14:33N 59°19' E 018°03'2 1.4
2016-May-18 13:25N 59°19' E 018°06'1 1.3
2016-May-18 12:33N 59°20' E 018°05'0 0.2
2016-May-18 11:34N 59°20' E 018°05'0 0.0
2016-May-18 10:33N 59°20' E 018°05'0 0.0
2016-May-18 09:33N 59°20' E 018°05'0 0.0
2016-May-18 08:25N 59°20' E 018°05'0 0.0
2016-May-18 07:34N 59°20' E 018°05'0 0.0
2016-May-18 06:32N 59°20' E 018°05'0 0.0
2016-May-18 05:34N 59°20' E 018°05'0 0.0
2016-May-18 04:34N 59°20' E 018°05'0 0.0
2016-May-18 03:33N 59°20' E 018°05'0 0.0
2016-May-18 02:34N 59°20' E 018°05'0 0.0
2016-May-18 01:33N 59°20' E 018°05'0 0.0
2016-May-18 00:30N 59°20' E 018°05'0 0.0
2016-May-17 23:33N 59°20' E 018°05'0 0.0
2016-May-17 22:34N 59°20' E 018°05'0 0.0
2016-May-17 21:33N 59°20' E 018°05'0 0.0
2016-May-17 20:33N 59°20' E 018°05'0 0.0
2016-May-17 19:34N 59°20' E 018°05'0 0.0
2016-May-17 18:33N 59°20' E 018°05'0 0.0
2016-May-17 17:33N 59°20' E 018°05'0 0.0
2016-May-17 16:34N 59°20' E 018°05'0 0.0
2016-May-17 15:32N 59°20' E 018°05'0 0.0
2016-May-17 14:31N 59°20' E 018°05'0 0.0
2016-May-17 13:33N 59°20' E 018°05'0 0.0
2016-May-17 12:33N 59°20' E 018°05'0 0.0
2016-May-17 11:33N 59°20' E 018°05'0 0.0
2016-May-17 10:33N 59°20' E 018°05'0 0.0
2016-May-17 09:33N 59°20' E 018°05'0 0.0
2016-May-17 08:20N 59°20' E 018°05'0 0.0
2016-May-17 07:25N 59°20' E 018°05'0 0.0
2016-May-17 06:21N 59°20' E 018°05'0 0.0
2016-May-17 05:29N 59°20' E 018°05'0 0.0
2016-May-17 04:34N 59°20' E 018°05'0 0.0
2016-May-17 03:33N 59°20' E 018°05'0 0.0
2016-May-17 02:33N 59°20' E 018°05'0 0.0
2016-May-17 01:33N 59°20' E 018°05'0 0.0
2016-May-17 00:33N 59°20' E 018°05'0 0.0
2016-May-16 23:33N 59°20' E 018°05'0 0.0
2016-May-16 22:33N 59°20' E 018°05'0 0.0
2016-May-16 21:32N 59°20' E 018°05'0 0.0
2016-May-16 20:33N 59°20' E 018°05'0 0.0
2016-May-16 19:33N 59°20' E 018°05'0 0.0
2016-May-16 18:32N 59°20' E 018°05'0 0.0
2016-May-16 17:29N 59°20' E 018°05'0 0.0
2016-May-16 16:24N 59°20' E 018°05'0 0.0
2016-May-16 15:32N 59°20' E 018°05'0 0.0
2016-May-16 14:33N 59°20' E 018°05'0 0.0
2016-May-16 13:18N 59°20' E 018°05'0 0.0
2016-May-16 12:33N 59°20' E 018°05'0 0.0
2016-May-16 11:33N 59°20' E 018°05'0 0.0
2016-May-16 10:33N 59°20' E 018°05'0 0.0
2016-May-16 09:34N 59°20' E 018°05'0 0.0
2016-May-16 08:31N 59°20' E 018°05'0 0.0
2016-May-16 07:33N 59°20' E 018°05'0 0.0
2016-May-16 06:33N 59°20' E 018°05'0 0.0
2016-May-16 05:33N 59°20' E 018°05'0 0.0
2016-May-16 04:33N 59°20' E 018°05'0 0.0
2016-May-16 03:34N 59°20' E 018°05'0 0.0
2016-May-16 02:33N 59°20' E 018°05'0 0.0
2016-May-16 01:33N 59°20' E 018°05'0 0.0
2016-May-16 00:33N 59°20' E 018°05'0 0.0
2016-May-15 23:33N 59°20' E 018°05'0 0.0
2016-May-15 22:33N 59°20' E 018°05'0 0.0
2016-May-15 21:34N 59°20' E 018°05'0 0.0
2016-May-15 20:33N 59°20' E 018°05'0 0.0
2016-May-15 19:34N 59°20' E 018°05'0 0.0
2016-May-15 18:34N 59°20' E 018°05'0 0.0
2016-May-15 17:33N 59°20' E 018°05'2 2.0
2016-May-15 16:32N 59°19' E 018°09'2 0.2
2016-May-15 09:21N 59°20' E 018°11'4 4.5
2016-May-15 08:33N 59°20' E 018°05'0 0.0
2016-May-15 07:33N 59°20' E 018°05'0 0.0
2016-May-15 06:33N 59°20' E 018°05'0 0.0
2016-May-15 05:33N 59°20' E 018°05'0 0.0
2016-May-15 04:33N 59°20' E 018°05'0 0.0
2016-May-15 03:33N 59°20' E 018°05'0 0.0
2016-May-15 02:33N 59°20' E 018°05'  

Dump ship's entire track history